createdAt,value
2018-05-25T00:00:53.707Z,72.50
2018-05-25T00:03:22.482Z,74.20
2018-05-25T00:05:51.234Z,74.80
2018-05-25T00:08:19.990Z,73.80
2018-05-25T00:10:48.755Z,73.70
2018-05-25T00:13:17.513Z,72.70
2018-05-25T00:15:46.677Z,71.30
2018-05-25T00:18:16.205Z,70.80
2018-05-25T00:20:44.949Z,70.80
2018-05-25T00:23:13.711Z,71.10
2018-05-25T00:25:42.456Z,70.50
2018-05-25T00:28:11.629Z,71.30
2018-05-25T00:30:40.464Z,71.60
2018-05-25T00:36:13.396Z,71.90
2018-05-25T00:38:42.171Z,72.00
2018-05-25T00:41:12.008Z,71.30
2018-05-25T00:43:40.801Z,71.60
2018-05-25T00:46:09.669Z,71.70
2018-05-25T00:48:39.277Z,72.50
2018-05-25T00:51:08.013Z,72.50
2018-05-25T00:53:36.733Z,72.50
2018-05-25T00:56:05.541Z,73.30
2018-05-25T00:58:34.331Z,72.70
2018-05-25T01:01:03.115Z,72.40
2018-05-25T01:03:31.883Z,72.60
2018-05-25T01:06:00.691Z,73.80
2018-05-25T01:08:29.482Z,74.40
2018-05-25T01:10:58.216Z,75.40
2018-05-25T01:13:27.039Z,75.10
2018-05-25T01:15:55.788Z,74.40
2018-05-25T01:18:25.317Z,75.00
2018-05-25T01:20:54.882Z,75.10
2018-05-25T01:23:23.645Z,75.10
2018-05-25T01:25:52.393Z,73.90
2018-05-25T01:28:21.944Z,72.10
2018-05-25T01:30:50.721Z,72.10
2018-05-25T01:33:19.996Z,72.70
2018-05-25T01:35:48.803Z,72.80
2018-05-25T01:38:17.608Z,73.30
2018-05-25T01:40:46.390Z,74.10
2018-05-25T01:43:15.168Z,73.70
2018-05-25T01:45:43.933Z,72.70
2018-05-25T01:48:12.670Z,72.30
2018-05-25T01:50:41.485Z,72.50
2018-05-25T01:53:10.231Z,71.80
2018-05-25T01:55:39.832Z,70.50
2018-05-25T01:58:08.583Z,70.30
2018-05-25T02:00:37.324Z,69.50
2018-05-25T02:03:06.088Z,70.40
2018-05-25T02:05:34.880Z,69.50
2018-05-25T02:08:03.617Z,70.40
2018-05-25T02:10:32.386Z,69.80
2018-05-25T02:13:01.222Z,70.60
2018-05-25T02:15:29.989Z,69.40
2018-05-25T02:17:59.563Z,68.90
2018-05-25T02:20:28.325Z,69.00
2018-05-25T02:22:57.079Z,69.00
2018-05-25T02:25:25.830Z,68.20
2018-05-25T02:27:54.597Z,69.10
2018-05-25T02:30:23.335Z,69.30
2018-05-25T02:32:52.100Z,70.30
2018-05-25T02:35:20.909Z,70.50
2018-05-25T02:37:49.660Z,71.60
2018-05-25T02:40:18.453Z,71.00
2018-05-25T02:42:48.021Z,71.50
2018-05-25T02:45:16.752Z,71.50
2018-05-25T02:47:46.059Z,72.00
2018-05-25T02:50:14.840Z,73.10
2018-05-25T02:52:43.642Z,72.20
2018-05-25T02:55:12.445Z,73.30
2018-05-25T02:57:41.269Z,72.30
2018-05-25T03:00:10.139Z,73.10
2018-05-25T03:02:38.898Z,73.20
2018-05-25T03:05:07.702Z,74.00
2018-05-25T03:07:36.454Z,73.60
2018-05-25T03:10:05.239Z,72.90
2018-05-25T03:12:35.043Z,72.60
2018-05-25T03:15:03.889Z,71.80
2018-05-25T03:17:33.606Z,71.30
2018-05-25T03:20:02.430Z,70.40
2018-05-25T03:22:31.173Z,70.30
2018-05-25T03:25:00.542Z,70.40
2018-05-25T03:27:31.150Z,73.60
2018-05-25T03:30:00.569Z,73.50
2018-05-25T03:32:31.179Z,72.10
2018-05-25T03:35:00.711Z,72.00
2018-05-25T03:37:31.334Z,72.50
2018-05-25T03:40:00.638Z,72.40
2018-05-25T03:42:31.225Z,72.90
2018-05-25T03:45:00.708Z,72.90
2018-05-25T03:47:33.654Z,72.00
2018-05-25T03:50:03.630Z,71.90
2018-05-25T03:52:32.369Z,72.00
2018-05-25T03:55:01.143Z,71.60
2018-05-25T03:57:31.021Z,71.90
2018-05-25T04:00:12.754Z,71.50
2018-05-25T04:02:41.525Z,73.30
2018-05-25T04:05:11.308Z,74.90
2018-05-25T04:07:40.747Z,73.60
2018-05-25T04:10:09.862Z,73.80
2018-05-25T04:12:38.594Z,73.60
2018-05-25T04:15:07.364Z,72.80
2018-05-25T04:17:37.598Z,72.40
2018-05-25T04:20:07.971Z,72.30
2018-05-25T04:22:38.227Z,72.00
2018-05-25T04:25:07.410Z,71.50
2018-05-25T04:27:36.910Z,71.40
2018-05-25T04:30:06.469Z,70.60
2018-05-25T04:32:35.225Z,70.50
2018-05-25T04:35:03.996Z,70.30
2018-05-25T04:37:33.530Z,70.60
2018-05-25T04:40:02.297Z,70.60
2018-05-25T04:42:31.149Z,70.80
2018-05-25T04:45:00.332Z,70.50
2018-05-25T04:47:29.133Z,70.30
2018-05-25T04:49:57.973Z,70.50
2018-05-25T04:52:26.805Z,69.10
2018-05-25T04:54:55.612Z,69.70
2018-05-25T04:57:24.371Z,68.80
2018-05-25T04:59:53.349Z,69.20
2018-05-25T05:02:22.198Z,69.40
2018-05-25T05:04:51.008Z,70.30
2018-05-25T05:07:19.762Z,70.70
2018-05-25T05:09:48.539Z,69.40
2018-05-25T05:12:17.296Z,70.30
2018-05-25T05:14:46.139Z,70.50
2018-05-25T05:17:14.932Z,69.80
2018-05-25T05:19:43.681Z,70.20
2018-05-25T05:22:13.621Z,69.80
2018-05-25T05:24:43.132Z,71.00
2018-05-25T05:27:11.931Z,72.40
2018-05-25T05:29:40.714Z,71.80
2018-05-25T05:32:09.457Z,72.30
2018-05-25T05:34:38.246Z,72.50
2018-05-25T05:37:07.009Z,71.60
2018-05-25T05:39:35.893Z,71.70
2018-05-25T05:42:04.653Z,70.80
2018-05-25T05:44:33.427Z,67.70
2018-05-25T05:47:02.185Z,70.30
2018-05-25T05:49:31.761Z,71.60
2018-05-25T05:52:00.519Z,73.10
2018-05-25T05:54:29.332Z,73.00
2018-05-25T05:56:58.081Z,72.30
2018-05-25T05:59:26.888Z,70.80
2018-05-25T06:01:55.703Z,70.70
2018-05-25T06:04:24.484Z,71.20
2018-05-25T06:06:53.243Z,69.30
2018-05-25T06:09:22.089Z,69.80
2018-05-25T06:11:50.847Z,69.50
2018-05-25T06:14:19.636Z,68.50
2018-05-25T06:16:48.453Z,69.90
2018-05-25T06:19:17.185Z,69.00
2018-05-25T06:21:46.117Z,68.10
2018-05-25T06:24:14.949Z,67.30
2018-05-25T06:26:43.690Z,68.00
2018-05-25T06:29:12.668Z,69.00
2018-05-25T06:31:41.550Z,67.40
2018-05-25T06:34:10.304Z,66.00
2018-05-25T06:36:39.031Z,66.40
2018-05-25T06:39:07.814Z,64.80
2018-05-25T06:41:36.603Z,65.30
2018-05-25T06:44:05.368Z,64.80
2018-05-25T06:46:34.176Z,65.70
2018-05-25T06:49:02.971Z,64.70
2018-05-25T06:51:32.253Z,65.30
2018-05-25T06:54:01.113Z,65.00
2018-05-25T06:56:29.866Z,64.90
2018-05-25T06:58:58.642Z,65.80
2018-05-25T07:01:27.426Z,66.40
2018-05-25T07:03:56.241Z,67.00
2018-05-25T07:06:24.999Z,66.10
2018-05-25T07:08:53.778Z,65.50
2018-05-25T07:11:22.526Z,67.70
2018-05-25T07:13:51.333Z,66.60
2018-05-25T07:16:20.142Z,63.60
2018-05-25T07:18:48.957Z,66.20
2018-05-25T07:21:17.743Z,63.40
2018-05-25T07:23:46.511Z,64.40
2018-05-25T07:26:15.313Z,62.00
2018-05-25T07:28:44.067Z,62.60
2018-05-25T07:31:12.827Z,59.90
2018-05-25T07:33:41.705Z,61.50
2018-05-25T07:36:10.557Z,60.90
2018-05-25T07:38:39.344Z,60.20
2018-05-25T07:41:08.117Z,60.50
2018-05-25T07:43:36.901Z,59.80
2018-05-25T07:46:05.661Z,60.00
2018-05-25T07:48:35.292Z,59.50
2018-05-25T07:51:04.168Z,59.50
2018-05-25T07:53:33.037Z,60.90
2018-05-25T07:56:02.931Z,59.30
2018-05-25T07:58:31.674Z,59.60
2018-05-25T08:01:00.479Z,62.00
2018-05-25T08:03:29.331Z,59.50
2018-05-25T08:05:58.077Z,59.70
2018-05-25T08:08:26.866Z,60.00
2018-05-25T08:10:55.687Z,58.90
2018-05-25T08:13:24.437Z,58.60
2018-05-25T08:15:53.190Z,61.70
2018-05-25T08:18:21.938Z,58.80
2018-05-25T08:20:51.102Z,57.80
2018-05-25T08:23:19.860Z,58.20
2018-05-25T08:25:48.646Z,57.80
2018-05-25T08:28:17.383Z,58.70
2018-05-25T08:30:46.181Z,58.30
2018-05-25T08:33:14.923Z,59.40
2018-05-25T08:35:43.679Z,58.40
2018-05-25T08:38:12.447Z,58.20
2018-05-25T08:40:42.401Z,59.00
2018-05-25T08:43:11.137Z,58.00
2018-05-25T08:45:39.928Z,57.90
2018-05-25T08:48:08.741Z,57.00
2018-05-25T08:50:37.504Z,56.30
2018-05-25T08:53:06.309Z,55.50
2018-05-25T08:55:35.217Z,58.80
2018-05-25T08:58:03.989Z,57.50
2018-05-25T09:00:34.550Z,56.30
2018-05-25T09:03:03.588Z,57.50
2018-05-25T09:05:32.384Z,58.10
2018-05-25T09:08:01.177Z,59.80
2018-05-25T09:10:30.340Z,58.00
2018-05-25T09:12:59.362Z,55.50
2018-05-25T09:15:28.202Z,54.90
2018-05-25T09:17:56.981Z,57.30
2018-05-25T09:20:25.815Z,59.20
2018-05-25T09:22:54.601Z,56.00
2018-05-25T09:25:23.403Z,54.70
2018-05-25T09:27:52.177Z,56.40
2018-05-25T09:30:20.901Z,55.80
2018-05-25T09:32:49.685Z,57.20
2018-05-25T09:35:18.470Z,56.40
2018-05-25T09:37:47.262Z,57.10
2018-05-25T09:40:16.049Z,56.50
2018-05-25T09:42:45.738Z,56.20
2018-05-25T09:45:14.687Z,56.20
2018-05-25T09:47:43.442Z,55.40
2018-05-25T09:50:12.217Z,56.00
2018-05-25T09:52:40.995Z,55.50
2018-05-25T09:55:10.510Z,56.10
2018-05-25T09:57:39.481Z,56.10
2018-05-25T10:00:08.299Z,55.70
2018-05-25T10:02:37.075Z,55.40
2018-05-25T10:05:05.828Z,58.00
2018-05-25T10:07:34.632Z,60.30
2018-05-25T10:10:04.151Z,61.10
2018-05-25T10:12:32.924Z,64.60
2018-05-25T10:15:01.746Z,64.20
2018-05-25T10:17:30.501Z,66.10
2018-05-25T10:19:59.360Z,67.60
2018-05-25T10:22:28.116Z,67.90
2018-05-25T10:24:57.642Z,67.60
2018-05-25T10:27:26.409Z,67.60
2018-05-25T10:29:55.364Z,69.70
2018-05-25T10:32:24.241Z,69.80
2018-05-25T10:34:52.985Z,68.70
2018-05-25T10:37:21.807Z,67.40
2018-05-25T10:39:50.629Z,68.90
2018-05-25T10:42:19.408Z,69.60
2018-05-25T10:44:48.165Z,66.60
2018-05-25T10:47:16.943Z,67.70
2018-05-25T10:49:45.711Z,62.10
2018-05-25T10:52:14.535Z,65.50
2018-05-25T10:54:43.340Z,64.40
2018-05-25T10:57:12.106Z,63.80
2018-05-25T10:59:40.861Z,64.10
2018-05-25T11:02:09.641Z,66.10
2018-05-25T11:04:38.808Z,66.10
2018-05-25T11:07:07.635Z,67.20
2018-05-25T11:09:36.420Z,65.80
2018-05-25T11:12:05.213Z,65.50
2018-05-25T11:14:35.955Z,66.40
2018-05-25T11:17:04.760Z,65.90
2018-05-25T11:19:35.350Z,65.90
2018-05-25T11:22:04.831Z,65.90
2018-05-25T11:24:34.706Z,67.30
2018-05-25T11:27:06.505Z,70.40
2018-05-25T11:29:35.252Z,71.00
2018-05-25T11:32:04.923Z,70.40
2018-05-25T11:34:35.525Z,66.50
2018-05-25T11:37:04.914Z,66.40
2018-05-25T11:39:33.737Z,66.20
2018-05-25T11:42:02.538Z,65.80
2018-05-25T11:44:31.328Z,67.80
2018-05-25T11:47:00.102Z,66.50
2018-05-25T11:49:28.914Z,66.70
2018-05-25T11:51:57.671Z,68.40
2018-05-25T11:54:26.458Z,67.10
2018-05-25T11:56:55.290Z,67.20
2018-05-25T11:59:24.119Z,69.10
2018-05-25T12:01:52.935Z,68.80
2018-05-25T12:04:21.825Z,68.70
2018-05-25T12:06:50.585Z,70.90
2018-05-25T12:09:19.353Z,66.80
2018-05-25T12:11:48.119Z,64.60
2018-05-25T12:14:16.878Z,66.80
2018-05-25T12:16:45.623Z,64.40
2018-05-25T12:19:14.474Z,66.00
2018-05-25T12:21:43.291Z,65.60
2018-05-25T12:24:12.054Z,66.40
2018-05-25T12:26:40.833Z,65.90
2018-05-25T12:29:09.593Z,65.40
2018-05-25T12:31:38.385Z,63.70
2018-05-25T12:34:07.204Z,64.10
2018-05-25T12:36:35.910Z,62.60
2018-05-25T12:39:05.457Z,63.60
2018-05-25T12:41:35.304Z,62.70
2018-05-25T12:44:04.079Z,62.20
2018-05-25T12:46:32.854Z,62.00
2018-05-25T12:49:01.642Z,62.00
2018-05-25T12:51:30.414Z,63.40
2018-05-25T12:53:59.164Z,63.60
2018-05-25T12:56:28.163Z,63.60
2018-05-25T12:58:56.941Z,63.80
2018-05-25T13:01:25.726Z,63.70
2018-05-25T13:03:54.555Z,64.30
2018-05-25T13:06:23.302Z,66.70
2018-05-25T13:08:52.075Z,67.80
2018-05-25T13:11:20.861Z,68.80
2018-05-25T13:13:49.675Z,67.80
2018-05-25T13:16:18.444Z,66.80
2018-05-25T13:18:47.232Z,68.60
2018-05-25T13:21:16.049Z,68.30
2018-05-25T13:23:45.048Z,67.80
2018-05-25T13:26:13.801Z,67.80
2018-05-25T13:28:42.565Z,66.90
2018-05-25T13:31:11.376Z,66.60
2018-05-25T13:33:40.163Z,67.60
2018-05-25T13:36:08.961Z,68.70
2018-05-25T13:38:37.692Z,68.90
2018-05-25T13:41:06.463Z,69.70
2018-05-25T13:43:35.966Z,70.10
2018-05-25T13:46:04.719Z,70.10
2018-05-25T13:48:34.321Z,69.30
2018-05-25T13:51:03.510Z,69.60
2018-05-25T13:53:32.245Z,69.40
2018-05-25T13:56:01.018Z,69.40
2018-05-25T13:58:29.848Z,70.10
2018-05-25T14:00:58.579Z,69.70
2018-05-25T14:03:27.306Z,69.20
2018-05-25T14:05:56.094Z,68.40
2018-05-25T14:08:25.425Z,68.90
2018-05-25T14:10:54.233Z,69.40
2018-05-25T14:13:23.017Z,70.70
2018-05-25T14:15:52.639Z,71.10
2018-05-25T14:18:21.385Z,71.10
2018-05-25T14:20:50.140Z,70.80
2018-05-25T14:23:18.905Z,70.30
2018-05-25T14:25:47.680Z,69.50
2018-05-25T14:28:16.405Z,68.10
2018-05-25T14:30:45.170Z,68.00
2018-05-25T14:33:14.106Z,68.50
2018-05-25T14:35:42.848Z,68.30
2018-05-25T14:38:11.627Z,67.70
2018-05-25T14:40:40.403Z,68.40
2018-05-25T14:43:09.136Z,68.80
2018-05-25T14:45:37.891Z,69.00
2018-05-25T14:48:06.665Z,68.60
2018-05-25T14:50:37.258Z,68.50
2018-05-25T14:53:06.686Z,68.50
2018-05-25T14:55:37.293Z,69.80
2018-05-25T14:58:06.747Z,69.70
2018-05-25T15:00:36.694Z,70.20
2018-05-25T15:03:06.581Z,70.00
2018-05-25T15:05:35.435Z,70.40
2018-05-25T15:08:04.209Z,69.70
2018-05-25T15:10:32.971Z,69.10
2018-05-25T15:13:01.733Z,69.00
2018-05-25T15:15:30.511Z,70.50
2018-05-25T15:17:59.355Z,68.20
2018-05-25T15:20:28.134Z,66.50
2018-05-25T15:22:56.946Z,67.30
2018-05-25T15:25:25.712Z,66.60
2018-05-25T15:27:54.514Z,64.80
2018-05-25T15:30:23.315Z,63.10
2018-05-25T15:32:52.167Z,62.40
2018-05-25T15:35:20.974Z,66.50
2018-05-25T15:37:49.717Z,65.90
2018-05-25T15:40:18.531Z,63.70
2018-05-25T15:42:47.357Z,63.90
2018-05-25T15:45:16.152Z,65.50
2018-05-25T15:47:44.936Z,65.40
2018-05-25T15:50:13.696Z,66.00
2018-05-25T15:52:42.483Z,65.80
2018-05-25T15:55:11.296Z,66.80
2018-05-25T15:57:40.076Z,69.60
2018-05-25T16:00:08.845Z,69.40
2018-05-25T16:02:37.646Z,69.00
2018-05-25T16:05:07.187Z,67.90
2018-05-25T16:07:37.859Z,67.00
2018-05-25T16:10:07.923Z,67.00
2018-05-25T16:12:37.247Z,67.90
2018-05-25T16:15:07.053Z,67.40
2018-05-25T16:17:35.819Z,66.40
2018-05-25T16:20:04.639Z,64.80
2018-05-25T16:22:33.417Z,65.20
2018-05-25T16:25:02.161Z,64.90
2018-05-25T16:27:30.998Z,64.40
2018-05-25T16:29:59.805Z,64.80
2018-05-25T16:32:28.557Z,65.70
2018-05-25T16:34:57.342Z,62.70
2018-05-25T16:37:26.137Z,63.50
2018-05-25T16:39:54.906Z,62.70
2018-05-25T16:42:23.721Z,62.90
2018-05-25T16:44:52.490Z,64.40
2018-05-25T16:47:21.277Z,65.60
2018-05-25T16:49:50.059Z,64.70
2018-05-25T16:52:18.834Z,65.00
2018-05-25T16:54:47.651Z,65.70
2018-05-25T16:57:16.480Z,66.60
2018-05-25T16:59:45.265Z,66.80
2018-05-25T17:02:14.115Z,67.50
2018-05-25T17:04:42.892Z,64.50
2018-05-25T17:07:11.896Z,65.10
2018-05-25T17:09:40.641Z,64.50
2018-05-25T17:12:09.451Z,64.70
2018-05-25T17:14:39.084Z,64.30
2018-05-25T17:17:07.873Z,64.30
2018-05-25T17:19:45.216Z,64.20
2018-05-25T17:22:22.910Z,64.70
2018-05-25T17:24:57.608Z,65.50
2018-05-25T17:27:32.475Z,65.50
2018-05-25T17:30:06.029Z,65.90
2018-05-25T17:32:37.673Z,66.20
2018-05-25T17:35:09.412Z,66.90
2018-05-25T17:37:45.245Z,68.30
2018-05-25T17:40:19.793Z,68.70
2018-05-25T17:42:50.408Z,68.30
2018-05-25T17:45:26.964Z,67.70
2018-05-25T17:47:57.529Z,67.70
2018-05-25T17:50:32.482Z,67.70
2018-05-25T17:53:04.614Z,67.20
2018-05-25T17:55:39.654Z,66.90
2018-05-25T17:58:14.077Z,66.90
2018-05-25T18:00:48.630Z,67.10
2018-05-25T18:03:23.357Z,67.80
2018-05-25T18:05:59.499Z,67.80
2018-05-25T18:08:35.675Z,68.20
2018-05-25T18:11:07.412Z,67.20
2018-05-25T18:13:38.260Z,66.70
2018-05-25T18:18:49.253Z,66.70
2018-05-25T18:21:22.884Z,66.50
2018-05-25T18:23:56.712Z,67.60
2018-05-25T18:26:30.281Z,68.50
2018-05-25T18:29:07.903Z,68.50
2018-05-25T18:31:43.765Z,69.00
2018-05-25T18:34:16.025Z,67.80
2018-05-25T18:36:48.184Z,68.30
2018-05-25T18:39:21.709Z,68.50
2018-05-25T18:41:53.656Z,69.10
2018-05-25T18:44:25.211Z,68.40
2018-05-25T18:46:59.447Z,68.00
2018-05-25T18:49:37.056Z,67.40
2018-05-25T18:52:09.156Z,66.70
2018-05-25T18:54:44.801Z,66.60
2018-05-25T18:57:21.478Z,67.30
2018-05-25T18:59:58.103Z,67.30
2018-05-25T19:02:31.968Z,68.30
2018-05-25T19:05:07.245Z,69.10
2018-05-25T19:07:43.280Z,67.20
2018-05-25T19:10:19.789Z,67.10
2018-05-25T19:12:51.115Z,67.00
2018-05-25T19:15:28.621Z,66.30
2018-05-25T19:18:02.886Z,66.40
2018-05-25T19:20:34.938Z,66.40
2018-05-25T19:23:08.233Z,66.70
2018-05-25T19:25:39.929Z,66.40
2018-05-25T19:28:13.678Z,66.10
2018-05-25T19:30:47.118Z,66.60
2018-05-25T19:33:24.378Z,66.80
2018-05-25T19:35:58.718Z,66.40
2018-05-25T19:41:09.525Z,67.00
2018-05-25T19:43:41.869Z,66.90
2018-05-25T19:46:13.672Z,66.70
2018-05-25T19:48:48.903Z,66.60
2018-05-25T19:51:24.286Z,66.20
2018-05-25T19:53:56.359Z,67.30
2018-05-25T19:56:30.536Z,67.20
2018-05-25T19:59:05.092Z,67.00
2018-05-25T20:01:41.664Z,67.30
2018-05-25T20:04:13.522Z,67.00
2018-05-25T20:06:44.036Z,66.50
2018-05-25T20:09:21.289Z,66.20
2018-05-25T20:11:55.355Z,66.70
2018-05-25T20:14:28.618Z,67.20
2018-05-25T20:17:01.443Z,67.00
2018-05-25T20:19:34.321Z,67.80
2018-05-25T20:22:06.294Z,68.30
2018-05-25T20:24:41.407Z,67.70
2018-05-25T20:27:13.132Z,67.30
2018-05-25T20:29:47.349Z,67.80
2018-05-25T20:32:21.342Z,68.30
2018-05-25T20:34:53.639Z,67.90
2018-05-25T20:37:31.151Z,67.30
2018-05-25T20:40:05.013Z,67.30
2018-05-25T20:42:42.756Z,67.10
2018-05-25T20:45:14.025Z,67.00
2018-05-25T20:47:45.331Z,68.80
2018-05-25T20:50:20.352Z,69.10
2018-05-25T20:52:56.412Z,68.60
2018-05-25T20:55:32.864Z,69.00
2018-05-25T21:00:50.473Z,68.80
2018-05-25T21:03:26.757Z,68.70
2018-05-25T21:06:00.497Z,67.40
2018-05-25T21:08:31.554Z,67.40
2018-05-25T21:11:06.139Z,66.90
2018-05-25T21:13:40.388Z,66.30
2018-05-25T21:16:15.928Z,66.40
2018-05-25T21:18:54.403Z,67.20
2018-05-25T21:21:31.122Z,67.00
2018-05-25T21:24:04.873Z,66.80
2018-05-25T21:26:38.022Z,67.00
2018-05-25T21:29:12.543Z,68.40
2018-05-25T21:31:44.138Z,68.40
2018-05-25T21:34:15.709Z,69.80
2018-05-25T21:36:49.711Z,71.50
2018-05-25T21:39:27.149Z,71.40
2018-05-25T21:42:03.043Z,70.00
2018-05-25T21:44:40.129Z,69.30
2018-05-25T21:47:11.758Z,69.90
2018-05-25T21:49:44.598Z,69.40
2018-05-25T21:52:16.534Z,68.60
2018-05-25T21:54:49.865Z,68.00
2018-05-25T21:57:27.747Z,69.40
2018-05-25T22:00:03.838Z,68.50
2018-05-25T22:02:36.369Z,67.30
2018-05-25T22:05:10.702Z,66.90
2018-05-25T22:07:42.399Z,67.50
2018-05-25T22:10:17.832Z,67.30
2018-05-25T22:12:51.242Z,67.80
2018-05-25T22:15:28.049Z,68.30
2018-05-25T22:17:58.683Z,68.10
2018-05-25T22:20:35.607Z,68.30
2018-05-25T22:23:12.359Z,68.60
2018-05-25T22:25:49.145Z,67.60
2018-05-25T22:28:22.197Z,67.50
2018-05-25T22:30:57.709Z,67.90
2018-05-25T22:33:30.527Z,67.80
2018-05-25T22:36:04.884Z,68.20
2018-05-25T22:38:41.040Z,68.40
2018-05-25T22:41:18.605Z,68.70
2018-05-25T22:44:02.239Z,68.80
2018-05-25T22:46:50.128Z,68.00
2018-05-25T22:49:40.699Z,67.20
2018-05-25T22:52:23.105Z,67.50
2018-05-25T22:54:58.480Z,66.80
2018-05-25T22:57:35.138Z,66.50
2018-05-25T23:00:06.448Z,67.60
2018-05-25T23:02:45.516Z,66.20
2018-05-25T23:05:18.298Z,66.30
2018-05-25T23:07:54.079Z,67.60
2018-05-25T23:10:29.734Z,68.20
2018-05-25T23:13:05.577Z,68.00
2018-05-25T23:15:39.444Z,67.20
2018-05-25T23:18:15.883Z,67.90
2018-05-25T23:20:52.569Z,68.00
2018-05-25T23:23:27.408Z,68.40
2018-05-25T23:26:00.958Z,67.70
2018-05-25T23:28:36.631Z,67.80
2018-05-25T23:31:10.892Z,67.40
2018-05-25T23:33:44.546Z,68.00
2018-05-25T23:36:19.296Z,67.60
2018-05-25T23:38:55.654Z,67.30
2018-05-25T23:41:32.253Z,66.50
2018-05-25T23:44:06.606Z,66.50
2018-05-25T23:46:41.265Z,66.20
2018-05-25T23:49:14.506Z,66.20
2018-05-25T23:51:47.616Z,67.10
2018-05-25T23:54:20.637Z,66.60
2018-05-25T23:56:56.876Z,66.60
2018-05-25T23:59:34.379Z,66.80
